createdAt,value
2024-04-25T00:02:27.390Z,5.90
2024-04-25T00:05:57.414Z,8.80
2024-04-25T00:09:07.970Z,7.70
2024-04-25T00:12:49.790Z,10.90
2024-04-25T00:16:26.178Z,8.70
2024-04-25T00:19:18.759Z,11.20
2024-04-25T00:22:10.007Z,11.80
2024-04-25T00:25:41.816Z,12.50
2024-04-25T00:28:45.188Z,10.20
2024-04-25T00:31:32.365Z,9.50
2024-04-25T00:35:11.228Z,8.30
2024-04-25T00:38:30.579Z,6.50
2024-04-25T00:41:49.093Z,14.90
2024-04-25T00:44:32.801Z,9.00
2024-04-25T00:48:02.274Z,9.10
2024-04-25T00:51:00.228Z,9.90
2024-04-25T00:54:49.044Z,10.70
2024-04-25T00:58:29.274Z,9.70
2024-04-25T01:02:04.305Z,12.10
2024-04-25T01:05:38.424Z,9.90
2024-04-25T01:08:43.485Z,8.20
2024-04-25T01:12:00.298Z,8.50
2024-04-25T01:15:21.253Z,7.60
2024-04-25T01:18:49.808Z,10.90
2024-04-25T01:22:14.351Z,9.70
2024-04-25T01:25:34.898Z,10.40
2024-04-25T01:28:56.216Z,9.00
2024-04-25T01:31:49.217Z,8.20
2024-04-25T01:35:31.082Z,7.50
2024-04-25T01:39:02.998Z,10.40
2024-04-25T01:42:22.111Z,7.30
2024-04-25T01:45:53.658Z,8.30
2024-04-25T01:49:35.535Z,8.80
2024-04-25T01:52:37.051Z,8.50
2024-04-25T01:56:16.740Z,6.80
2024-04-25T01:59:18.712Z,7.30
2024-04-25T02:02:50.625Z,8.70
2024-04-25T02:06:32.228Z,9.30
2024-04-25T02:09:45.991Z,7.10
2024-04-25T02:13:25.862Z,6.10
2024-04-25T02:17:14.816Z,7.80
2024-04-25T02:21:01.971Z,4.80
2024-04-25T02:24:49.401Z,8.80
2024-04-25T02:28:21.986Z,4.80
2024-04-25T02:31:23.578Z,5.20
2024-04-25T02:35:04.619Z,7.50
2024-04-25T02:38:46.323Z,4.40
2024-04-25T02:41:58.377Z,6.40
2024-04-25T02:45:15.535Z,5.50
2024-04-25T02:48:36.972Z,7.30
2024-04-25T02:52:17.613Z,5.40
2024-04-25T02:55:36.423Z,6.60
2024-04-25T02:58:41.658Z,4.50
2024-04-25T03:01:55.997Z,6.00
2024-04-25T03:05:35.248Z,5.30
2024-04-25T03:08:43.341Z,4.70
2024-04-25T03:12:31.989Z,5.40
2024-04-25T03:16:10.002Z,7.60
2024-04-25T03:19:21.939Z,5.40
2024-04-25T03:22:31.912Z,5.10
2024-04-25T03:25:45.809Z,5.70
2024-04-25T03:29:24.642Z,8.90
2024-04-25T03:32:37.281Z,5.60
2024-04-25T03:36:00.680Z,5.90
2024-04-25T03:39:25.026Z,3.50
2024-04-25T03:42:14.103Z,4.30
2024-04-25T03:45:26.860Z,5.50
2024-04-25T03:48:53.365Z,7.40
2024-04-25T03:52:14.193Z,7.50
2024-04-25T03:55:46.389Z,7.80
2024-04-25T03:58:32.610Z,8.10
2024-04-25T04:01:39.966Z,8.10
2024-04-25T04:04:08.928Z,7.90
2024-04-25T04:07:57.744Z,7.60
2024-04-25T04:11:10.345Z,13.10
2024-04-25T04:14:15.761Z,5.60
2024-04-25T04:17:44.907Z,9.50
2024-04-25T04:21:34.102Z,6.50
2024-04-25T04:25:03.264Z,5.20
2024-04-25T04:27:56.588Z,6.90
2024-04-25T04:30:36.781Z,6.60
2024-04-25T04:33:40.604Z,10.20
2024-04-25T04:36:41.743Z,6.50
2024-04-25T04:39:30.679Z,8.40
2024-04-25T04:42:01.820Z,8.60
2024-04-25T04:45:23.593Z,7.90
2024-04-25T04:48:42.861Z,6.80
2024-04-25T04:51:44.293Z,4.50
2024-04-25T04:54:13.540Z,5.40
2024-04-25T04:56:55.742Z,7.10
2024-04-25T05:00:27.166Z,6.00
2024-04-25T05:03:14.869Z,5.60
2024-04-25T05:06:26.202Z,8.60
2024-04-25T05:09:28.952Z,7.20
2024-04-25T05:12:29.337Z,5.80
2024-04-25T05:15:21.711Z,7.30
2024-04-25T05:18:04.142Z,4.90
2024-04-25T05:20:54.220Z,6.10
2024-04-25T05:24:03.732Z,6.70
2024-04-25T05:26:32.331Z,6.40
2024-04-25T05:29:13.395Z,6.00
2024-04-25T05:32:30.762Z,5.90
2024-04-25T05:35:46.047Z,5.30
2024-04-25T05:38:39.495Z,3.90
2024-04-25T05:41:11.475Z,4.00
2024-04-25T05:43:46.126Z,3.60
2024-04-25T05:47:04.138Z,3.80
2024-04-25T05:49:57.083Z,3.70
2024-04-25T05:52:39.991Z,4.50
2024-04-25T05:55:53.635Z,6.70
2024-04-25T05:58:58.067Z,7.10
2024-04-25T06:02:22.585Z,6.00
2024-04-25T06:05:51.705Z,5.90
2024-04-25T06:08:53.568Z,5.00
2024-04-25T06:12:16.560Z,4.20
2024-04-25T06:15:11.872Z,2.60
2024-04-25T06:18:03.966Z,2.90
2024-04-25T06:21:43.104Z,2.10
2024-04-25T06:25:13.154Z,1.80
2024-04-25T06:28:43.341Z,2.20
2024-04-25T06:31:44.073Z,1.70
2024-04-25T06:34:21.866Z,2.60
2024-04-25T06:37:21.856Z,3.10
2024-04-25T06:40:25.609Z,3.60
2024-04-25T06:43:55.253Z,2.70
2024-04-25T06:46:57.941Z,3.70
2024-04-25T06:49:43.066Z,3.10
2024-04-25T06:52:55.348Z,4.40
2024-04-25T06:56:25.256Z,3.20
2024-04-25T06:59:57.929Z,2.20
2024-04-25T07:03:22.449Z,3.60
2024-04-25T07:07:04.067Z,3.30
2024-04-25T07:10:54.639Z,3.00
2024-04-25T07:14:24.782Z,3.80
2024-04-25T07:18:12.937Z,3.90
2024-04-25T07:22:01.852Z,2.70
2024-04-25T07:25:51.607Z,1.80
2024-04-25T07:29:40.633Z,1.40
2024-04-25T07:33:20.987Z,1.90
2024-04-25T07:37:09.956Z,1.90
2024-04-25T07:40:42.429Z,2.30
2024-04-25T07:44:11.413Z,1.90
2024-04-25T07:48:00.925Z,3.30
2024-04-25T07:51:50.232Z,3.40
2024-04-25T07:54:38.434Z,3.90
2024-04-25T07:58:08.842Z,2.30
2024-04-25T08:04:57.970Z,2.60
2024-04-25T08:11:53.035Z,2.20
2024-04-25T08:15:41.918Z,2.80
2024-04-25T08:19:30.633Z,1.80
2024-04-25T08:22:39.411Z,2.40
2024-04-25T08:26:23.485Z,3.70
2024-04-25T08:30:12.498Z,1.80
2024-04-25T08:33:44.529Z,2.70
2024-04-25T08:36:39.005Z,2.40
2024-04-25T08:39:23.795Z,1.60
2024-04-25T08:42:28.317Z,2.60
2024-04-25T08:45:22.364Z,2.90
2024-04-25T08:47:57.210Z,2.00
2024-04-25T08:50:45.565Z,3.50
2024-04-25T08:53:33.507Z,3.70
2024-04-25T08:56:08.791Z,1.90
2024-04-25T08:59:09.654Z,3.20
2024-04-25T09:01:46.525Z,2.30
2024-04-25T09:04:45.703Z,2.50
2024-04-25T09:07:33.239Z,1.90
2024-04-25T09:11:02.229Z,2.70
2024-04-25T09:14:12.231Z,1.90
2024-04-25T09:18:01.284Z,2.80
2024-04-25T09:20:45.733Z,2.20
2024-04-25T09:23:25.273Z,2.30
2024-04-25T09:26:09.847Z,2.20
2024-04-25T09:28:43.353Z,2.80
2024-04-25T09:31:21.258Z,3.70
2024-04-25T09:34:15.975Z,3.10
2024-04-25T09:37:16.342Z,3.80
2024-04-25T09:40:07.897Z,5.10
2024-04-25T09:43:27.075Z,3.30
2024-04-25T09:46:28.536Z,3.60
2024-04-25T09:49:34.178Z,4.00
2024-04-25T09:52:45.936Z,3.20
2024-04-25T09:56:00.540Z,2.20
2024-04-25T09:59:25.359Z,3.00
2024-04-25T10:02:40.803Z,4.90
2024-04-25T10:06:02.946Z,4.50
2024-04-25T10:08:54.637Z,5.20
2024-04-25T10:12:29.372Z,3.90
2024-04-25T10:15:08.342Z,3.30
2024-04-25T10:17:39.962Z,4.50
2024-04-25T10:21:03.569Z,5.10
2024-04-25T10:24:12.406Z,4.70
2024-04-25T10:27:41.433Z,3.70
2024-04-25T10:30:35.589Z,5.60
2024-04-25T10:33:24.158Z,3.80
2024-04-25T10:36:06.817Z,4.50
2024-04-25T10:39:25.261Z,3.70
2024-04-25T10:43:07.555Z,6.00
2024-04-25T10:46:29.140Z,4.10
2024-04-25T10:49:22.006Z,3.50
2024-04-25T10:52:31.065Z,3.80
2024-04-25T10:56:19.990Z,5.50
2024-04-25T10:59:59.869Z,4.40
2024-04-25T11:03:05.153Z,4.50
2024-04-25T11:06:16.692Z,4.70
2024-04-25T11:09:50.905Z,2.60
2024-04-25T11:12:53.118Z,4.80
2024-04-25T11:15:32.446Z,3.20
2024-04-25T11:18:42.849Z,3.70
2024-04-25T11:24:17.523Z,3.50
2024-04-25T11:27:03.106Z,6.30
2024-04-25T11:29:58.119Z,5.60
2024-04-25T11:32:44.416Z,6.80
2024-04-25T11:35:30.686Z,5.10
2024-04-25T11:37:59.375Z,5.10
2024-04-25T11:41:34.302Z,3.80
2024-04-25T11:44:30.544Z,8.30
2024-04-25T11:47:52.679Z,4.70
2024-04-25T11:51:24.808Z,3.80
2024-04-25T11:54:18.837Z,6.00
2024-04-25T12:00:41.806Z,9.10
2024-04-25T12:03:53.257Z,4.10
2024-04-25T12:07:22.341Z,2.80
2024-04-25T12:11:13.370Z,1.00
2024-04-25T12:15:02.433Z,3.30
2024-04-25T12:18:54.296Z,1.70
2024-04-25T12:22:32.368Z,2.00
2024-04-25T12:25:59.176Z,1.50
2024-04-25T12:29:38.085Z,1.70
2024-04-25T12:36:58.232Z,0.70
2024-04-25T12:40:47.435Z,0.40
2024-04-25T12:44:23.696Z,1.00
2024-04-25T12:48:12.697Z,1.00
2024-04-25T12:52:01.754Z,1.60
2024-04-25T12:55:50.620Z,1.00
2024-04-25T12:58:50.696Z,2.30
2024-04-25T13:02:39.712Z,1.80
2024-04-25T13:05:59.872Z,1.70
2024-04-25T13:09:27.752Z,1.40
2024-04-25T13:12:50.670Z,1.20
2024-04-25T13:16:23.304Z,2.10
2024-04-25T13:19:53.747Z,1.70
2024-04-25T13:23:42.691Z,1.10
2024-04-25T13:27:24.847Z,0.60
2024-04-25T13:31:05.569Z,0.50
2024-04-25T13:34:54.496Z,1.90
2024-04-25T13:38:46.463Z,0.80
2024-04-25T13:42:35.311Z,1.00
2024-04-25T13:45:36.157Z,0.50
2024-04-25T13:48:06.725Z,2.40
2024-04-25T13:50:44.636Z,1.90
2024-04-25T13:53:36.524Z,0.80
2024-04-25T13:56:07.890Z,1.40
2024-04-25T13:58:59.899Z,1.40
2024-04-25T14:02:34.933Z,2.30
2024-04-25T14:06:06.901Z,1.10
2024-04-25T14:09:55.795Z,1.00
2024-04-25T14:13:44.875Z,2.10
2024-04-25T14:17:33.852Z,0.80
2024-04-25T14:21:22.839Z,1.20
2024-04-25T14:25:12.158Z,1.20
2024-04-25T14:29:05.105Z,1.70
2024-04-25T14:36:22.730Z,1.20
2024-04-25T14:40:12.348Z,0.70
2024-04-25T14:44:05.206Z,1.40
2024-04-25T14:48:04.494Z,1.20
2024-04-25T14:51:55.985Z,1.40
2024-04-25T14:55:44.848Z,3.70
2024-04-25T14:59:34.658Z,2.40
2024-04-25T15:03:23.722Z,2.10
2024-04-25T15:07:12.674Z,4.00
2024-04-25T15:11:01.684Z,2.20
2024-04-25T15:15:02.159Z,2.10
2024-04-25T15:18:57.306Z,1.80
2024-04-25T15:22:46.634Z,1.40
2024-04-25T15:26:35.495Z,1.60
2024-04-25T15:30:24.785Z,2.10
2024-04-25T15:34:13.608Z,0.50
2024-04-25T15:38:02.508Z,2.70
2024-04-25T15:41:52.172Z,1.10
2024-04-25T15:45:39.854Z,0.80
2024-04-25T15:48:31.236Z,0.80
2024-04-25T15:51:22.793Z,1.20
2024-04-25T15:54:22.592Z,2.40
2024-04-25T15:56:54.029Z,2.10
2024-04-25T15:59:41.036Z,1.60
2024-04-25T16:03:13.192Z,1.20
2024-04-25T16:07:05.079Z,0.70
2024-04-25T16:10:54.842Z,0.70
2024-04-25T16:14:44.404Z,1.30
2024-04-25T16:18:34.995Z,2.00
2024-04-25T16:22:24.168Z,1.10
2024-04-25T16:26:12.960Z,0.80
2024-04-25T16:30:02.296Z,0.70
2024-04-25T16:33:51.341Z,0.70
2024-04-25T16:37:40.199Z,1.90
2024-04-25T16:41:29.824Z,0.90
2024-04-25T16:45:18.832Z,1.80
2024-04-25T16:49:07.800Z,2.80
2024-04-25T16:52:56.765Z,3.30
2024-04-25T16:56:45.951Z,1.90
2024-04-25T17:00:34.951Z,2.70
2024-04-25T17:04:23.867Z,3.40
2024-04-25T17:08:12.835Z,1.70
2024-04-25T17:12:01.701Z,2.00
2024-04-25T17:15:50.513Z,2.00
2024-04-25T17:19:39.336Z,4.20
2024-04-25T17:23:28.946Z,3.10
2024-04-25T17:27:17.824Z,4.30
2024-04-25T17:31:06.871Z,1.60
2024-04-25T17:34:55.871Z,2.50
2024-04-25T17:38:45.609Z,2.10
2024-04-25T17:42:34.628Z,2.60
2024-04-25T17:46:23.561Z,2.90
2024-04-25T17:49:55.469Z,2.20
2024-04-25T17:53:44.582Z,1.90
2024-04-25T17:57:33.643Z,2.30
2024-04-25T18:01:22.989Z,3.40
2024-04-25T18:05:12.935Z,6.90
2024-04-25T18:08:51.887Z,6.90
2024-04-25T18:12:40.926Z,13.40
2024-04-25T18:16:30.331Z,9.40
2024-04-25T18:20:19.486Z,6.40
2024-04-25T18:24:08.627Z,8.20
2024-04-25T18:27:57.597Z,4.20
2024-04-25T18:31:46.668Z,4.40
2024-04-25T18:35:34.995Z,4.40
2024-04-25T18:39:24.986Z,3.20
2024-04-25T18:43:13.772Z,4.10
2024-04-25T18:47:03.432Z,2.60
2024-04-25T18:50:52.476Z,1.50
2024-04-25T18:54:41.297Z,3.80
2024-04-25T18:58:30.149Z,2.20
2024-04-25T19:02:19.036Z,1.40
2024-04-25T19:06:08.501Z,2.20
2024-04-25T19:09:57.287Z,1.60
2024-04-25T19:13:46.602Z,0.70
2024-04-25T19:17:35.432Z,3.80
2024-04-25T19:21:24.401Z,2.00
2024-04-25T19:25:13.570Z,2.00
2024-04-25T19:29:02.423Z,1.80
2024-04-25T19:32:44.722Z,1.00
2024-04-25T19:36:33.731Z,1.90
2024-04-25T19:40:22.690Z,2.40
2024-04-25T19:44:11.474Z,2.50
2024-04-25T19:48:00.723Z,2.40
2024-04-25T19:51:49.808Z,1.90
2024-04-25T19:55:39.661Z,1.80
2024-04-25T19:59:28.570Z,1.50
2024-04-25T20:03:17.515Z,1.90
2024-04-25T20:07:06.430Z,1.80
2024-04-25T20:10:55.322Z,1.60
2024-04-25T20:14:44.939Z,3.30
2024-04-25T20:18:32.441Z,3.10
2024-04-25T20:22:21.502Z,1.30
2024-04-25T20:26:10.502Z,2.20
2024-04-25T20:29:59.476Z,2.60
2024-04-25T20:33:48.544Z,1.50
2024-04-25T20:37:37.469Z,2.20
2024-04-25T20:41:29.908Z,2.10
2024-04-25T20:45:19.530Z,1.10
2024-04-25T20:49:08.970Z,2.70
2024-04-25T20:52:57.829Z,1.50
2024-04-25T20:56:46.676Z,3.10
2024-04-25T21:00:35.599Z,1.80
2024-04-25T21:04:23.743Z,3.50
2024-04-25T21:08:12.639Z,3.40
2024-04-25T21:12:01.541Z,2.50
2024-04-25T21:15:50.622Z,3.20
2024-04-25T21:19:39.443Z,2.20
2024-04-25T21:23:27.745Z,2.20
2024-04-25T21:27:16.893Z,4.30
2024-04-25T21:31:07.123Z,2.30
2024-04-25T21:34:56.039Z,1.90
2024-04-25T21:38:45.971Z,1.60
2024-04-25T21:42:36.338Z,1.90
2024-04-25T21:45:45.685Z,2.50
2024-04-25T21:49:34.760Z,2.10
2024-04-25T21:53:24.355Z,2.70
2024-04-25T21:57:13.156Z,3.00
2024-04-25T22:01:02.164Z,4.10
2024-04-25T22:04:51.400Z,2.00
2024-04-25T22:08:40.204Z,1.10
2024-04-25T22:12:29.299Z,1.90
2024-04-25T22:16:18.380Z,5.10
2024-04-25T22:20:07.343Z,2.10
2024-04-25T22:23:56.244Z,1.90
2024-04-25T22:27:43.797Z,2.60
2024-04-25T22:31:32.657Z,1.30
2024-04-25T22:35:21.899Z,2.70
2024-04-25T22:39:11.008Z,1.10
2024-04-25T22:42:59.827Z,0.90
2024-04-25T22:46:48.634Z,1.20
2024-04-25T22:50:38.452Z,0.70
2024-04-25T22:54:27.292Z,2.20
2024-04-25T22:58:16.286Z,1.20
2024-04-25T23:02:05.614Z,1.00
2024-04-25T23:05:54.510Z,0.70
2024-04-25T23:09:43.419Z,2.30
2024-04-25T23:13:32.272Z,0.40
2024-04-25T23:17:21.602Z,0.40
2024-04-25T23:21:09.687Z,1.10
2024-04-25T23:24:20.752Z,0.80
2024-04-25T23:27:11.470Z,0.30
2024-04-25T23:29:43.836Z,0.90
2024-04-25T23:36:28.835Z,0.90
2024-04-25T23:40:17.921Z,1.00
2024-04-25T23:44:06.730Z,2.00
2024-04-25T23:47:56.566Z,0.80
2024-04-25T23:51:45.683Z,2.70
2024-04-25T23:55:35.611Z,2.40
2024-04-25T23:59:24.714Z,2.50
